sensor_id;sensor_type;location;lat;lon;timestamp;temperature;humidity
20345;DHT22;10330;48.816;9.278;2022-10-23T00:00:11;12.40;99.90
20345;DHT22;10330;48.816;9.278;2022-10-23T00:02:37;12.40;99.90
20345;DHT22;10330;48.816;9.278;2022-10-23T00:05:03;12.40;99.90
20345;DHT22;10330;48.816;9.278;2022-10-23T00:07:30;12.40;99.90
20345;DHT22;10330;48.816;9.278;2022-10-23T00:09:56;12.40;99.90
20345;DHT22;10330;48.816;9.278;2022-10-23T00:12:22;12.40;99.90
20345;DHT22;10330;48.816;9.278;2022-10-23T00:14:48;12.40;99.90
20345;DHT22;10330;48.816;9.278;2022-10-23T00:17:14;12.40;99.90
20345;DHT22;10330;48.816;9.278;2022-10-23T00:19:40;12.30;99.90
20345;DHT22;10330;48.816;9.278;2022-10-23T00:22:06;12.30;99.90
20345;DHT22;10330;48.816;9.278;2022-10-23T00:24:33;12.20;99.90
20345;DHT22;10330;48.816;9.278;2022-10-23T00:26:59;12.20;99.90
20345;DHT22;10330;48.816;9.278;2022-10-23T00:29:26;12.20;99.90
20345;DHT22;10330;48.816;9.278;2022-10-23T00:31:54;12.20;99.90
20345;DHT22;10330;48.816;9.278;2022-10-23T00:34:20;12.10;99.90
20345;DHT22;10330;48.816;9.278;2022-10-23T00:36:46;12.10;99.90
20345;DHT22;10330;48.816;9.278;2022-10-23T00:39:12;12.00;99.90
20345;DHT22;10330;48.816;9.278;2022-10-23T00:41:38;11.90;99.90
20345;DHT22;10330;48.816;9.278;2022-10-23T00:45:05;11.80;99.90
20345;DHT22;10330;48.816;9.278;2022-10-23T00:46:57;11.90;99.90
20345;DHT22;10330;48.816;9.278;2022-10-23T00:49:24;11.80;99.90
20345;DHT22;10330;48.816;9.278;2022-10-23T00:51:52;11.90;99.90
20345;DHT22;10330;48.816;9.278;2022-10-23T00:54:23;11.90;99.90
20345;DHT22;10330;48.816;9.278;2022-10-23T00:56:55;11.90;99.90
20345;DHT22;10330;48.816;9.278;2022-10-23T00:59:22;11.90;99.90
20345;DHT22;10330;48.816;9.278;2022-10-23T01:01:48;11.90;99.90
20345;DHT22;10330;48.816;9.278;2022-10-23T01:04:14;11.90;99.90
20345;DHT22;10330;48.816;9.278;2022-10-23T01:09:35;11.90;99.90
20345;DHT22;10330;48.816;9.278;2022-10-23T01:15:28;11.90;99.90
20345;DHT22;10330;48.816;9.278;2022-10-23T01:20:19;11.80;99.90
20345;DHT22;10330;48.816;9.278;2022-10-23T01:25:57;11.80;99.90
20345;DHT22;10330;48.816;9.278;2022-10-23T01:28:29;11.70;99.90
20345;DHT22;10330;48.816;9.278;2022-10-23T01:30:58;11.70;99.90
20345;DHT22;10330;48.816;9.278;2022-10-23T01:33:36;11.70;99.90
20345;DHT22;10330;48.816;9.278;2022-10-23T01:36:08;11.70;99.90
20345;DHT22;10330;48.816;9.278;2022-10-23T01:46:39;11.50;99.90
20345;DHT22;10330;48.816;9.278;2022-10-23T01:49:10;11.50;99.90
20345;DHT22;10330;48.816;9.278;2022-10-23T01:51:41;11.50;99.90
20345;DHT22;10330;48.816;9.278;2022-10-23T01:54:12;11.50;99.90
20345;DHT22;10330;48.816;9.278;2022-10-23T01:56:42;11.50;99.90
20345;DHT22;10330;48.816;9.278;2022-10-23T01:59:13;11.50;99.90
20345;DHT22;10330;48.816;9.278;2022-10-23T02:01:45;11.50;99.90
20345;DHT22;10330;48.816;9.278;2022-10-23T02:04:20;11.60;99.90
20345;DHT22;10330;48.816;9.278;2022-10-23T02:06:48;11.50;99.90
20345;DHT22;10330;48.816;9.278;2022-10-23T02:09:14;11.40;99.90
20345;DHT22;10330;48.816;9.278;2022-10-23T02:11:52;11.50;99.90
20345;DHT22;10330;48.816;9.278;2022-10-23T02:14:36;11.40;99.90
20345;DHT22;10330;48.816;9.278;2022-10-23T02:17:23;11.40;99.90
20345;DHT22;10330;48.816;9.278;2022-10-23T02:20:02;11.30;99.90
20345;DHT22;10330;48.816;9.278;2022-10-23T02:22:39;11.30;99.90
20345;DHT22;10330;48.816;9.278;2022-10-23T02:25:15;11.30;99.90
20345;DHT22;10330;48.816;9.278;2022-10-23T02:27:52;11.30;99.90
20345;DHT22;10330;48.816;9.278;2022-10-23T02:30:22;11.30;99.90
20345;DHT22;10330;48.816;9.278;2022-10-23T02:32:58;11.30;99.90
20345;DHT22;10330;48.816;9.278;2022-10-23T02:35:26;11.30;99.90
20345;DHT22;10330;48.816;9.278;2022-10-23T02:38:02;11.30;99.90
20345;DHT22;10330;48.816;9.278;2022-10-23T02:40:41;11.30;99.90
20345;DHT22;10330;48.816;9.278;2022-10-23T02:43:27;11.20;99.90
20345;DHT22;10330;48.816;9.278;2022-10-23T02:49:01;11.30;99.90
20345;DHT22;10330;48.816;9.278;2022-10-23T02:54:44;11.30;99.90
20345;DHT22;10330;48.816;9.278;2022-10-23T02:57:55;11.30;99.90
20345;DHT22;10330;48.816;9.278;2022-10-23T03:00:22;11.30;99.90
20345;DHT22;10330;48.816;9.278;2022-10-23T03:02:55;11.30;99.90
20345;DHT22;10330;48.816;9.278;2022-10-23T03:05:27;11.30;99.90
20345;DHT22;10330;48.816;9.278;2022-10-23T03:07:55;11.30;99.90
20345;DHT22;10330;48.816;9.278;2022-10-23T03:10:21;11.40;99.90
20345;DHT22;10330;48.816;9.278;2022-10-23T03:12:47;11.40;99.90
20345;DHT22;10330;48.816;9.278;2022-10-23T03:15:15;11.40;99.90
20345;DHT22;10330;48.816;9.278;2022-10-23T03:17:42;11.40;99.90
20345;DHT22;10330;48.816;9.278;2022-10-23T03:20:09;11.40;99.90
20345;DHT22;10330;48.816;9.278;2022-10-23T03:22:36;11.30;99.90
20345;DHT22;10330;48.816;9.278;2022-10-23T03:25:02;11.30;99.90
20345;DHT22;10330;48.816;9.278;2022-10-23T03:27:31;11.30;99.90
20345;DHT22;10330;48.816;9.278;2022-10-23T03:30:03;11.20;99.90
20345;DHT22;10330;48.816;9.278;2022-10-23T03:32:30;11.30;99.90
20345;DHT22;10330;48.816;9.278;2022-10-23T03:34:56;11.30;99.90
20345;DHT22;10330;48.816;9.278;2022-10-23T03:37:23;11.30;99.90
20345;DHT22;10330;48.816;9.278;2022-10-23T03:39:49;11.30;99.90
20345;DHT22;10330;48.816;9.278;2022-10-23T03:42:16;11.20;99.90
20345;DHT22;10330;48.816;9.278;2022-10-23T03:44:42;11.20;99.90
20345;DHT22;10330;48.816;9.278;2022-10-23T03:47:08;11.20;99.90
20345;DHT22;10330;48.816;9.278;2022-10-23T03:49:38;11.20;99.90
20345;DHT22;10330;48.816;9.278;2022-10-23T03:52:06;11.20;99.90
20345;DHT22;10330;48.816;9.278;2022-10-23T03:54:33;11.20;99.90
20345;DHT22;10330;48.816;9.278;2022-10-23T03:57:00;11.20;99.90
20345;DHT22;10330;48.816;9.278;2022-10-23T03:59:27;11.20;99.90
20345;DHT22;10330;48.816;9.278;2022-10-23T04:01:53;11.20;99.90
20345;DHT22;10330;48.816;9.278;2022-10-23T04:04:20;11.10;99.90
20345;DHT22;10330;48.816;9.278;2022-10-23T04:06:46;11.20;99.90
20345;DHT22;10330;48.816;9.278;2022-10-23T04:09:12;11.20;99.90
20345;DHT22;10330;48.816;9.278;2022-10-23T04:11:38;11.20;99.90
20345;DHT22;10330;48.816;9.278;2022-10-23T04:14:05;11.20;99.90
20345;DHT22;10330;48.816;9.278;2022-10-23T04:16:32;11.20;99.90
20345;DHT22;10330;48.816;9.278;2022-10-23T04:18:59;11.30;99.90
20345;DHT22;10330;48.816;9.278;2022-10-23T04:21:25;11.30;99.90
20345;DHT22;10330;48.816;9.278;2022-10-23T04:23:54;11.30;99.90
20345;DHT22;10330;48.816;9.278;2022-10-23T04:26:21;11.30;99.90
20345;DHT22;10330;48.816;9.278;2022-10-23T04:28:47;11.20;99.90
20345;DHT22;10330;48.816;9.278;2022-10-23T04:31:15;11.20;99.90
20345;DHT22;10330;48.816;9.278;2022-10-23T04:33:42;11.20;99.90
20345;DHT22;10330;48.816;9.278;2022-10-23T04:36:08;11.20;99.90
20345;DHT22;10330;48.816;9.278;2022-10-23T04:38:35;11.20;99.90
20345;DHT22;10330;48.816;9.278;2022-10-23T04:41:02;11.10;99.90
20345;DHT22;10330;48.816;9.278;2022-10-23T04:43:29;11.20;99.90
20345;DHT22;10330;48.816;9.278;2022-10-23T04:45:56;11.10;99.90
20345;DHT22;10330;48.816;9.278;2022-10-23T04:48:22;11.10;99.90
20345;DHT22;10330;48.816;9.278;2022-10-23T04:51:14;11.10;99.90
20345;DHT22;10330;48.816;9.278;2022-10-23T04:54:05;11.10;99.90
20345;DHT22;10330;48.816;9.278;2022-10-23T04:56:43;11.20;99.90
20345;DHT22;10330;48.816;9.278;2022-10-23T04:59:15;11.20;99.90
20345;DHT22;10330;48.816;9.278;2022-10-23T05:01:42;11.20;99.90
20345;DHT22;10330;48.816;9.278;2022-10-23T05:04:09;11.20;99.90
20345;DHT22;10330;48.816;9.278;2022-10-23T05:06:55;11.20;99.90
20345;DHT22;10330;48.816;9.278;2022-10-23T05:09:35;11.20;99.90
20345;DHT22;10330;48.816;9.278;2022-10-23T05:12:14;11.30;99.90
20345;DHT22;10330;48.816;9.278;2022-10-23T05:14:40;11.30;99.90
20345;DHT22;10330;48.816;9.278;2022-10-23T05:17:12;11.30;99.90
20345;DHT22;10330;48.816;9.278;2022-10-23T05:19:44;11.30;99.90
20345;DHT22;10330;48.816;9.278;2022-10-23T05:22:14;11.30;99.90
20345;DHT22;10330;48.816;9.278;2022-10-23T05:24:51;11.20;99.90
20345;DHT22;10330;48.816;9.278;2022-10-23T05:27:22;11.20;99.90
20345;DHT22;10330;48.816;9.278;2022-10-23T05:29:50;11.20;99.90
20345;DHT22;10330;48.816;9.278;2022-10-23T05:32:19;11.20;99.90
20345;DHT22;10330;48.816;9.278;2022-10-23T05:34:47;11.20;99.90
20345;DHT22;10330;48.816;9.278;2022-10-23T05:37:14;11.20;99.90
20345;DHT22;10330;48.816;9.278;2022-10-23T05:39:42;11.10;99.90
20345;DHT22;10330;48.816;9.278;2022-10-23T05:42:12;11.10;99.90
20345;DHT22;10330;48.816;9.278;2022-10-23T05:44:40;11.10;99.90
20345;DHT22;10330;48.816;9.278;2022-10-23T05:47:32;11.00;99.90
20345;DHT22;10330;48.816;9.278;2022-10-23T05:50:10;11.10;99.90
20345;DHT22;10330;48.816;9.278;2022-10-23T05:53:03;11.00;99.90
20345;DHT22;10330;48.816;9.278;2022-10-23T05:55:53;11.00;99.90
20345;DHT22;10330;48.816;9.278;2022-10-23T05:58:38;11.00;99.90
20345;DHT22;10330;48.816;9.278;2022-10-23T06:01:26;11.00;99.90
20345;DHT22;10330;48.816;9.278;2022-10-23T06:03:59;10.90;99.90
20345;DHT22;10330;48.816;9.278;2022-10-23T06:06:40;10.90;99.90
20345;DHT22;10330;48.816;9.278;2022-10-23T06:09:07;10.90;99.90
20345;DHT22;10330;48.816;9.278;2022-10-23T06:11:38;10.80;99.90
20345;DHT22;10330;48.816;9.278;2022-10-23T06:14:10;10.90;99.90
20345;DHT22;10330;48.816;9.278;2022-10-23T06:16:37;10.90;99.90
20345;DHT22;10330;48.816;9.278;2022-10-23T06:19:05;10.90;99.90
20345;DHT22;10330;48.816;9.278;2022-10-23T06:21:35;11.00;99.90
20345;DHT22;10330;48.816;9.278;2022-10-23T06:24:03;10.90;99.90
20345;DHT22;10330;48.816;9.278;2022-10-23T06:27:02;11.00;99.90
20345;DHT22;10330;48.816;9.278;2022-10-23T06:29:38;10.90;99.90
20345;DHT22;10330;48.816;9.278;2022-10-23T06:32:06;11.00;99.90
20345;DHT22;10330;48.816;9.278;2022-10-23T06:34:33;11.10;99.90
20345;DHT22;10330;48.816;9.278;2022-10-23T06:36:59;11.10;99.90
20345;DHT22;10330;48.816;9.278;2022-10-23T06:39:35;11.20;99.90
20345;DHT22;10330;48.816;9.278;2022-10-23T06:42:13;11.20;99.90
20345;DHT22;10330;48.816;9.278;2022-10-23T06:44:57;11.20;99.90
20345;DHT22;10330;48.816;9.278;2022-10-23T06:47:48;11.30;99.90
20345;DHT22;10330;48.816;9.278;2022-10-23T06:50:37;11.30;99.90
20345;DHT22;10330;48.816;9.278;2022-10-23T06:53:08;11.40;99.90
20345;DHT22;10330;48.816;9.278;2022-10-23T06:55:38;11.40;99.90
20345;DHT22;10330;48.816;9.278;2022-10-23T06:58:08;11.50;99.90
20345;DHT22;10330;48.816;9.278;2022-10-23T07:00:44;11.50;99.90
20345;DHT22;10330;48.816;9.278;2022-10-23T07:03:10;11.60;99.90
20345;DHT22;10330;48.816;9.278;2022-10-23T07:05:37;11.60;99.90
20345;DHT22;10330;48.816;9.278;2022-10-23T07:08:04;11.70;99.90
20345;DHT22;10330;48.816;9.278;2022-10-23T07:10:36;11.80;99.90
20345;DHT22;10330;48.816;9.278;2022-10-23T07:13:03;11.80;99.90
20345;DHT22;10330;48.816;9.278;2022-10-23T07:15:43;11.90;99.90
20345;DHT22;10330;48.816;9.278;2022-10-23T07:18:14;12.00;99.90
20345;DHT22;10330;48.816;9.278;2022-10-23T07:21:04;12.00;99.90
20345;DHT22;10330;48.816;9.278;2022-10-23T07:23:31;12.00;99.90
20345;DHT22;10330;48.816;9.278;2022-10-23T07:26:12;12.10;99.90
20345;DHT22;10330;48.816;9.278;2022-10-23T07:28:42;12.10;99.90
20345;DHT22;10330;48.816;9.278;2022-10-23T07:31:09;12.20;99.90
20345;DHT22;10330;48.816;9.278;2022-10-23T07:33:59;12.30;99.90
20345;DHT22;10330;48.816;9.278;2022-10-23T07:36:25;12.30;99.90
20345;DHT22;10330;48.816;9.278;2022-10-23T07:38:51;12.30;99.90
20345;DHT22;10330;48.816;9.278;2022-10-23T07:41:18;12.40;99.90
20345;DHT22;10330;48.816;9.278;2022-10-23T07:43:44;12.50;99.90
20345;DHT22;10330;48.816;9.278;2022-10-23T07:46:11;12.50;99.90
20345;DHT22;10330;48.816;9.278;2022-10-23T07:48:38;12.60;99.90
20345;DHT22;10330;48.816;9.278;2022-10-23T07:51:09;12.70;99.90
20345;DHT22;10330;48.816;9.278;2022-10-23T07:53:42;12.80;99.90
20345;DHT22;10330;48.816;9.278;2022-10-23T07:56:25;12.90;99.90
20345;DHT22;10330;48.816;9.278;2022-10-23T07:59:13;12.90;99.90
20345;DHT22;10330;48.816;9.278;2022-10-23T08:01:42;13.10;99.90
20345;DHT22;10330;48.816;9.278;2022-10-23T08:04:09;13.10;99.90
20345;DHT22;10330;48.816;9.278;2022-10-23T08:06:43;13.10;99.90
20345;DHT22;10330;48.816;9.278;2022-10-23T08:09:09;13.30;99.90
20345;DHT22;10330;48.816;9.278;2022-10-23T08:11:39;13.40;99.90
20345;DHT22;10330;48.816;9.278;2022-10-23T08:14:08;13.50;99.90
20345;DHT22;10330;48.816;9.278;2022-10-23T08:16:36;13.50;99.90
20345;DHT22;10330;48.816;9.278;2022-10-23T08:19:05;13.70;99.90
20345;DHT22;10330;48.816;9.278;2022-10-23T08:21:33;13.80;99.90
20345;DHT22;10330;48.816;9.278;2022-10-23T08:24:00;13.90;99.90
20345;DHT22;10330;48.816;9.278;2022-10-23T08:26:27;14.00;99.90
20345;DHT22;10330;48.816;9.278;2022-10-23T08:28:59;14.10;99.90
20345;DHT22;10330;48.816;9.278;2022-10-23T08:31:27;14.20;99.90
20345;DHT22;10330;48.816;9.278;2022-10-23T08:34:12;14.40;99.90
20345;DHT22;10330;48.816;9.278;2022-10-23T08:36:40;14.40;99.90
20345;DHT22;10330;48.816;9.278;2022-10-23T08:39:07;14.70;99.90
20345;DHT22;10330;48.816;9.278;2022-10-23T08:41:40;14.80;99.90
20345;DHT22;10330;48.816;9.278;2022-10-23T08:44:35;14.90;99.90
20345;DHT22;10330;48.816;9.278;2022-10-23T08:57:57;15.30;99.90
20345;DHT22;10330;48.816;9.278;2022-10-23T09:00:25;15.30;99.90
20345;DHT22;10330;48.816;9.278;2022-10-23T09:02:53;15.30;99.90
20345;DHT22;10330;48.816;9.278;2022-10-23T09:05:29;15.40;99.90
20345;DHT22;10330;48.816;9.278;2022-10-23T09:11:07;15.50;99.90
20345;DHT22;10330;48.816;9.278;2022-10-23T09:19:23;15.60;99.90
20345;DHT22;10330;48.816;9.278;2022-10-23T09:21:54;15.70;99.90
20345;DHT22;10330;48.816;9.278;2022-10-23T09:24:23;15.80;99.90
20345;DHT22;10330;48.816;9.278;2022-10-23T09:26:52;15.90;99.90
20345;DHT22;10330;48.816;9.278;2022-10-23T09:32:00;16.20;99.90
20345;DHT22;10330;48.816;9.278;2022-10-23T09:34:29;16.20;99.90
20345;DHT22;10330;48.816;9.278;2022-10-23T09:37:02;16.40;99.90
20345;DHT22;10330;48.816;9.278;2022-10-23T09:39:35;16.50;99.90
20345;DHT22;10330;48.816;9.278;2022-10-23T09:42:23;16.60;99.90
20345;DHT22;10330;48.816;9.278;2022-10-23T09:44:52;16.80;99.90
20345;DHT22;10330;48.816;9.278;2022-10-23T09:47:22;16.80;99.90
20345;DHT22;10330;48.816;9.278;2022-10-23T09:49:52;17.00;99.90
20345;DHT22;10330;48.816;9.278;2022-10-23T09:56:05;17.40;99.90
20345;DHT22;10330;48.816;9.278;2022-10-23T09:59:23;17.50;99.90
20345;DHT22;10330;48.816;9.278;2022-10-23T10:02:15;17.60;99.90
20345;DHT22;10330;48.816;9.278;2022-10-23T10:05:32;17.70;99.90
20345;DHT22;10330;48.816;9.278;2022-10-23T10:08:36;17.90;99.90
20345;DHT22;10330;48.816;9.278;2022-10-23T10:21:27;18.60;99.90
20345;DHT22;10330;48.816;9.278;2022-10-23T10:24:29;18.80;99.90
20345;DHT22;10330;48.816;9.278;2022-10-23T10:30:12;19.10;99.90
20345;DHT22;10330;48.816;9.278;2022-10-23T10:33:07;19.10;99.90
20345;DHT22;10330;48.816;9.278;2022-10-23T10:38:26;19.50;99.90
20345;DHT22;10330;48.816;9.278;2022-10-23T10:47:25;20.60;99.90
20345;DHT22;10330;48.816;9.278;2022-10-23T10:55:56;21.90;99.90
20345;DHT22;10330;48.816;9.278;2022-10-23T11:00:59;22.10;99.90
20345;DHT22;10330;48.816;9.278;2022-10-23T11:03:33;22.00;99.90
20345;DHT22;10330;48.816;9.278;2022-10-23T11:06:04;22.10;99.90
20345;DHT22;10330;48.816;9.278;2022-10-23T11:08:35;22.00;99.90
20345;DHT22;10330;48.816;9.278;2022-10-23T11:11:21;22.10;99.90
20345;DHT22;10330;48.816;9.278;2022-10-23T11:13:50;22.10;99.90
20345;DHT22;10330;48.816;9.278;2022-10-23T11:16:36;22.00;99.90
20345;DHT22;10330;48.816;9.278;2022-10-23T11:27:18;21.30;99.90
20345;DHT22;10330;48.816;9.278;2022-10-23T11:32:53;21.10;99.90
20345;DHT22;10330;48.816;9.278;2022-10-23T11:37:59;21.20;99.90
20345;DHT22;10330;48.816;9.278;2022-10-23T11:40:32;21.10;99.90
20345;DHT22;10330;48.816;9.278;2022-10-23T11:42:59;21.10;99.90
20345;DHT22;10330;48.816;9.278;2022-10-23T11:45:34;21.10;99.90
20345;DHT22;10330;48.816;9.278;2022-10-23T11:48:50;21.00;99.90
20345;DHT22;10330;48.816;9.278;2022-10-23T11:50:53;20.80;99.90
20345;DHT22;10330;48.816;9.278;2022-10-23T11:56:19;20.70;99.90
20345;DHT22;10330;48.816;9.278;2022-10-23T11:58:50;20.80;99.90
20345;DHT22;10330;48.816;9.278;2022-10-23T12:01:34;20.70;99.90
20345;DHT22;10330;48.816;9.278;2022-10-23T12:06:55;20.80;99.90
20345;DHT22;10330;48.816;9.278;2022-10-23T12:09:24;20.90;99.90
20345;DHT22;10330;48.816;9.278;2022-10-23T12:12:14;21.00;99.90
20345;DHT22;10330;48.816;9.278;2022-10-23T12:17:29;21.30;99.90
20345;DHT22;10330;48.816;9.278;2022-10-23T12:25:19;21.60;99.90
20345;DHT22;10330;48.816;9.278;2022-10-23T12:27:51;21.60;99.90
20345;DHT22;10330;48.816;9.278;2022-10-23T12:36:37;21.80;99.90
20345;DHT22;10330;48.816;9.278;2022-10-23T12:38:32;21.90;99.90
20345;DHT22;10330;48.816;9.278;2022-10-23T12:41:48;21.90;99.90
20345;DHT22;10330;48.816;9.278;2022-10-23T12:44:02;22.00;99.90
20345;DHT22;10330;48.816;9.278;2022-10-23T12:46:34;22.20;99.90
20345;DHT22;10330;48.816;9.278;2022-10-23T12:49:15;22.30;99.90
20345;DHT22;10330;48.816;9.278;2022-10-23T12:51:42;22.50;99.90
20345;DHT22;10330;48.816;9.278;2022-10-23T12:54:15;22.60;99.90
20345;DHT22;10330;48.816;9.278;2022-10-23T12:56:42;22.80;99.90
20345;DHT22;10330;48.816;9.278;2022-10-23T12:59:36;23.10;99.90
20345;DHT22;10330;48.816;9.278;2022-10-23T13:04:51;24.00;99.90
20345;DHT22;10330;48.816;9.278;2022-10-23T13:07:22;24.30;99.90
20345;DHT22;10330;48.816;9.278;2022-10-23T13:09:50;24.50;99.90
20345;DHT22;10330;48.816;9.278;2022-10-23T13:12:28;24.80;99.90
20345;DHT22;10330;48.816;9.278;2022-10-23T13:15:15;24.80;99.90
20345;DHT22;10330;48.816;9.278;2022-10-23T13:20:29;25.70;99.90
20345;DHT22;10330;48.816;9.278;2022-10-23T13:23:00;26.20;99.90
20345;DHT22;10330;48.816;9.278;2022-10-23T13:25:31;26.50;99.90
20345;DHT22;10330;48.816;9.278;2022-10-23T13:30:39;26.90;99.90
20345;DHT22;10330;48.816;9.278;2022-10-23T13:36:00;27.30;99.90
20345;DHT22;10330;48.816;9.278;2022-10-23T13:38:34;27.30;99.90
20345;DHT22;10330;48.816;9.278;2022-10-23T13:41:03;27.00;99.90
20345;DHT22;10330;48.816;9.278;2022-10-23T13:43:31;26.60;99.90
20345;DHT22;10330;48.816;9.278;2022-10-23T13:45:58;26.20;99.90
20345;DHT22;10330;48.816;9.278;2022-10-23T13:48:25;25.80;99.90
20345;DHT22;10330;48.816;9.278;2022-10-23T13:50:52;25.50;99.90
20345;DHT22;10330;48.816;9.278;2022-10-23T13:53:19;25.20;99.90
20345;DHT22;10330;48.816;9.278;2022-10-23T13:55:47;24.90;99.90
20345;DHT22;10330;48.816;9.278;2022-10-23T13:58:15;24.60;99.90
20345;DHT22;10330;48.816;9.278;2022-10-23T14:00:42;24.30;99.90
20345;DHT22;10330;48.816;9.278;2022-10-23T14:03:10;23.90;99.90
20345;DHT22;10330;48.816;9.278;2022-10-23T14:05:36;23.70;99.90
20345;DHT22;10330;48.816;9.278;2022-10-23T14:08:02;23.40;99.90
20345;DHT22;10330;48.816;9.278;2022-10-23T14:10:28;23.20;99.90
20345;DHT22;10330;48.816;9.278;2022-10-23T14:12:55;23.00;99.90
20345;DHT22;10330;48.816;9.278;2022-10-23T14:15:21;22.80;99.90
20345;DHT22;10330;48.816;9.278;2022-10-23T14:17:47;22.60;99.90
20345;DHT22;10330;48.816;9.278;2022-10-23T14:20:14;22.30;99.90
20345;DHT22;10330;48.816;9.278;2022-10-23T14:22:40;22.20;99.90
20345;DHT22;10330;48.816;9.278;2022-10-23T14:25:06;22.00;99.90
20345;DHT22;10330;48.816;9.278;2022-10-23T14:27:32;21.90;99.90
20345;DHT22;10330;48.816;9.278;2022-10-23T14:29:59;21.70;99.90
20345;DHT22;10330;48.816;9.278;2022-10-23T14:32:25;21.60;99.90
20345;DHT22;10330;48.816;9.278;2022-10-23T14:34:52;21.50;99.90
20345;DHT22;10330;48.816;9.278;2022-10-23T14:37:20;21.40;99.90
20345;DHT22;10330;48.816;9.278;2022-10-23T14:39:46;21.30;99.90
20345;DHT22;10330;48.816;9.278;2022-10-23T14:42:13;21.10;99.90
20345;DHT22;10330;48.816;9.278;2022-10-23T14:44:39;21.00;99.90
20345;DHT22;10330;48.816;9.278;2022-10-23T14:47:05;21.00;99.90
20345;DHT22;10330;48.816;9.278;2022-10-23T14:49:32;20.90;99.90
20345;DHT22;10330;48.816;9.278;2022-10-23T14:52:00;20.80;99.90
20345;DHT22;10330;48.816;9.278;2022-10-23T14:54:27;20.80;99.90
20345;DHT22;10330;48.816;9.278;2022-10-23T14:56:54;20.70;99.90
20345;DHT22;10330;48.816;9.278;2022-10-23T14:59:20;20.70;99.90
20345;DHT22;10330;48.816;9.278;2022-10-23T15:01:46;20.60;99.90
20345;DHT22;10330;48.816;9.278;2022-10-23T15:04:13;20.60;99.90
20345;DHT22;10330;48.816;9.278;2022-10-23T15:06:39;20.50;99.90
20345;DHT22;10330;48.816;9.278;2022-10-23T15:09:06;20.40;99.90
20345;DHT22;10330;48.816;9.278;2022-10-23T15:11:32;20.30;99.90
20345;DHT22;10330;48.816;9.278;2022-10-23T15:13:59;20.30;99.90
20345;DHT22;10330;48.816;9.278;2022-10-23T15:16:26;20.20;99.90
20345;DHT22;10330;48.816;9.278;2022-10-23T15:18:52;20.20;99.90
20345;DHT22;10330;48.816;9.278;2022-10-23T15:21:18;20.10;99.90
20345;DHT22;10330;48.816;9.278;2022-10-23T15:23:45;20.10;99.90
20345;DHT22;10330;48.816;9.278;2022-10-23T15:26:19;20.10;99.90
20345;DHT22;10330;48.816;9.278;2022-10-23T15:28:53;20.10;99.90
20345;DHT22;10330;48.816;9.278;2022-10-23T15:31:45;20.10;99.90
20345;DHT22;10330;48.816;9.278;2022-10-23T15:34:15;20.00;99.90
20345;DHT22;10330;48.816;9.278;2022-10-23T15:36:42;20.00;99.90
20345;DHT22;10330;48.816;9.278;2022-10-23T15:39:10;20.00;99.90
20345;DHT22;10330;48.816;9.278;2022-10-23T15:41:38;20.00;99.90
20345;DHT22;10330;48.816;9.278;2022-10-23T15:44:06;20.00;99.90
20345;DHT22;10330;48.816;9.278;2022-10-23T15:46:33;20.00;99.90
20345;DHT22;10330;48.816;9.278;2022-10-23T15:48:59;20.00;99.90
20345;DHT22;10330;48.816;9.278;2022-10-23T15:51:25;20.00;99.90
20345;DHT22;10330;48.816;9.278;2022-10-23T15:53:52;20.00;99.90
20345;DHT22;10330;48.816;9.278;2022-10-23T15:56:18;19.90;99.90
20345;DHT22;10330;48.816;9.278;2022-10-23T15:58:45;19.90;99.90
20345;DHT22;10330;48.816;9.278;2022-10-23T16:01:11;19.90;99.90
20345;DHT22;10330;48.816;9.278;2022-10-23T16:03:37;19.90;99.90
20345;DHT22;10330;48.816;9.278;2022-10-23T16:06:06;19.80;99.90
20345;DHT22;10330;48.816;9.278;2022-10-23T16:08:33;19.80;99.90
20345;DHT22;10330;48.816;9.278;2022-10-23T16:10:59;19.70;99.90
20345;DHT22;10330;48.816;9.278;2022-10-23T16:13:26;19.60;99.90
20345;DHT22;10330;48.816;9.278;2022-10-23T16:15:53;19.50;99.90
20345;DHT22;10330;48.816;9.278;2022-10-23T16:18:20;19.50;99.90
20345;DHT22;10330;48.816;9.278;2022-10-23T16:20:47;19.40;99.90
20345;DHT22;10330;48.816;9.278;2022-10-23T16:23:16;19.30;99.90
20345;DHT22;10330;48.816;9.278;2022-10-23T16:25:42;19.20;99.90
20345;DHT22;10330;48.816;9.278;2022-10-23T16:28:08;19.10;99.90
20345;DHT22;10330;48.816;9.278;2022-10-23T16:30:39;19.10;99.90
20345;DHT22;10330;48.816;9.278;2022-10-23T16:33:06;19.10;99.90
20345;DHT22;10330;48.816;9.278;2022-10-23T16:35:32;19.00;99.90
20345;DHT22;10330;48.816;9.278;2022-10-23T16:38:07;18.90;99.90
20345;DHT22;10330;48.816;9.278;2022-10-23T16:40:34;18.90;99.90
20345;DHT22;10330;48.816;9.278;2022-10-23T16:43:19;18.80;99.90
20345;DHT22;10330;48.816;9.278;2022-10-23T16:46:04;18.70;99.90
20345;DHT22;10330;48.816;9.278;2022-10-23T16:48:32;18.70;99.90
20345;DHT22;10330;48.816;9.278;2022-10-23T16:50:59;18.70;99.90
20345;DHT22;10330;48.816;9.278;2022-10-23T16:53:25;18.70;99.90
20345;DHT22;10330;48.816;9.278;2022-10-23T16:55:55;18.70;99.90
20345;DHT22;10330;48.816;9.278;2022-10-23T16:58:23;18.70;99.90
20345;DHT22;10330;48.816;9.278;2022-10-23T17:00:57;18.70;99.90
20345;DHT22;10330;48.816;9.278;2022-10-23T17:03:23;18.70;99.90
20345;DHT22;10330;48.816;9.278;2022-10-23T17:05:49;18.60;99.90
20345;DHT22;10330;48.816;9.278;2022-10-23T17:08:16;18.70;99.90
20345;DHT22;10330;48.816;9.278;2022-10-23T17:10:42;18.70;99.90
20345;DHT22;10330;48.816;9.278;2022-10-23T17:13:08;18.70;99.90
20345;DHT22;10330;48.816;9.278;2022-10-23T17:15:34;18.60;99.90
20345;DHT22;10330;48.816;9.278;2022-10-23T17:18:04;18.70;99.90
20345;DHT22;10330;48.816;9.278;2022-10-23T17:20:30;18.70;99.90
20345;DHT22;10330;48.816;9.278;2022-10-23T17:22:56;18.60;99.90
20345;DHT22;10330;48.816;9.278;2022-10-23T17:25:22;18.60;99.90
20345;DHT22;10330;48.816;9.278;2022-10-23T17:27:48;18.60;99.90
20345;DHT22;10330;48.816;9.278;2022-10-23T17:30:15;18.60;99.90
20345;DHT22;10330;48.816;9.278;2022-10-23T17:32:41;18.60;99.90
20345;DHT22;10330;48.816;9.278;2022-10-23T17:35:07;18.70;99.90
20345;DHT22;10330;48.816;9.278;2022-10-23T17:37:33;18.90;99.90
20345;DHT22;10330;48.816;9.278;2022-10-23T17:40:00;19.00;99.90
20345;DHT22;10330;48.816;9.278;2022-10-23T17:42:27;19.20;99.90
20345;DHT22;10330;48.816;9.278;2022-10-23T17:44:54;19.30;99.90
20345;DHT22;10330;48.816;9.278;2022-10-23T17:47:20;19.50;99.90
20345;DHT22;10330;48.816;9.278;2022-10-23T17:49:46;19.40;99.90
20345;DHT22;10330;48.816;9.278;2022-10-23T17:52:13;19.30;99.90
20345;DHT22;10330;48.816;9.278;2022-10-23T17:54:40;19.20;99.90
20345;DHT22;10330;48.816;9.278;2022-10-23T17:57:09;19.20;99.90
20345;DHT22;10330;48.816;9.278;2022-10-23T17:59:36;19.00;99.90
20345;DHT22;10330;48.816;9.278;2022-10-23T18:02:04;19.00;99.90